createdAt,value
2023-01-18T00:02:02.835Z,95668.88
2023-01-18T00:04:29.353Z,95663.31
2023-01-18T00:06:57.293Z,95663.00
2023-01-18T00:09:23.808Z,95675.72
2023-01-18T00:11:50.300Z,95670.44
2023-01-18T00:14:16.864Z,95682.16
2023-01-18T00:16:43.316Z,95684.28
2023-01-18T00:19:13.195Z,95690.66
2023-01-18T00:21:40.729Z,95684.28
2023-01-18T00:24:10.972Z,95680.53
2023-01-18T00:26:38.001Z,95686.94
2023-01-18T00:29:05.096Z,95684.03
2023-01-18T00:31:31.846Z,95693.28
2023-01-18T00:33:58.480Z,95686.06
2023-01-18T00:36:25.089Z,95691.94
2023-01-18T00:38:52.348Z,95699.88
2023-01-18T00:41:19.846Z,95701.50
2023-01-18T00:43:46.509Z,95700.72
2023-01-18T00:46:15.974Z,95694.38
2023-01-18T00:48:42.989Z,95699.16
2023-01-18T00:51:12.052Z,95698.63
2023-01-18T00:53:38.983Z,95701.03
2023-01-18T00:56:10.058Z,95700.22
2023-01-18T00:58:39.364Z,95701.03
2023-01-18T01:01:07.452Z,95708.25
2023-01-18T01:03:54.681Z,95707.72
2023-01-18T01:06:46.094Z,95715.94
2023-01-18T01:09:25.042Z,95716.75
2023-01-18T01:12:11.321Z,95715.13
2023-01-18T01:15:00.117Z,95713.03
2023-01-18T01:17:47.386Z,95725.22
2023-01-18T01:20:32.768Z,95724.44
2023-01-18T01:23:30.100Z,95727.91
2023-01-18T01:26:06.189Z,95732.16
2023-01-18T01:28:32.675Z,95734.81
2023-01-18T01:31:00.622Z,95734.84
2023-01-18T01:33:28.706Z,95746.50
2023-01-18T01:35:59.990Z,95758.47
2023-01-18T01:38:26.919Z,95760.31
2023-01-18T01:41:03.180Z,95765.63
2023-01-18T01:43:42.675Z,95771.72
2023-01-18T01:46:24.264Z,95774.88
2023-01-18T01:49:00.755Z,95779.38
2023-01-18T01:51:27.615Z,95776.19
2023-01-18T01:53:58.970Z,95782.28
2023-01-18T01:56:25.904Z,95782.56
2023-01-18T01:58:56.426Z,95787.59
2023-01-18T02:01:23.082Z,95781.25
2023-01-18T02:03:49.718Z,95781.00
2023-01-18T02:06:33.505Z,95782.00
2023-01-18T02:09:08.863Z,95778.31
2023-01-18T02:11:36.034Z,95790.56
2023-01-18T02:14:10.167Z,95787.38
2023-01-18T02:17:04.988Z,95796.09
2023-01-18T02:20:19.395Z,95793.16
2023-01-18T02:22:48.539Z,95798.25
2023-01-18T02:25:45.477Z,95787.88
2023-01-18T02:28:18.807Z,95800.16
2023-01-18T02:31:13.196Z,95799.56
2023-01-18T02:33:57.851Z,95801.69
2023-01-18T02:36:50.847Z,95803.53
2023-01-18T02:39:56.105Z,95803.22
2023-01-18T02:42:45.713Z,95817.97
2023-01-18T02:46:03.639Z,95817.94
2023-01-18T02:48:40.393Z,95823.25
2023-01-18T02:51:07.374Z,95817.41
2023-01-18T02:53:44.008Z,95822.19
2023-01-18T02:56:45.387Z,95824.34
2023-01-18T02:59:30.042Z,95816.31
2023-01-18T03:02:05.102Z,95826.63
2023-01-18T03:04:37.157Z,95819.47
2023-01-18T03:07:17.597Z,95828.94
2023-01-18T03:09:45.259Z,95823.69
2023-01-18T03:12:17.817Z,95828.16
2023-01-18T03:14:52.557Z,95825.19
2023-01-18T03:17:25.413Z,95828.13
2023-01-18T03:20:05.873Z,95833.69
2023-01-18T03:22:56.429Z,95841.13
2023-01-18T03:25:30.631Z,95832.13
2023-01-18T03:28:19.235Z,95838.56
2023-01-18T03:31:07.425Z,95831.66
2023-01-18T03:33:41.825Z,95839.88
2023-01-18T03:36:22.315Z,95840.91
2023-01-18T03:38:54.059Z,95851.19
2023-01-18T03:41:22.144Z,95846.47
2023-01-18T03:43:51.872Z,95854.44
2023-01-18T03:46:20.156Z,95851.22
2023-01-18T03:48:46.696Z,95855.00
2023-01-18T03:51:31.723Z,95856.06
2023-01-18T03:54:06.511Z,95861.34
2023-01-18T03:56:43.321Z,95857.13
2023-01-18T03:59:10.072Z,95863.00
2023-01-18T04:01:37.492Z,95856.09
2023-01-18T04:04:04.030Z,95863.53
2023-01-18T04:06:33.029Z,95873.31
2023-01-18T04:08:59.594Z,95872.56
2023-01-18T04:11:26.143Z,95869.63
2023-01-18T04:13:54.515Z,95875.47
2023-01-18T04:16:21.578Z,95880.00
2023-01-18T04:18:48.200Z,95885.31
2023-01-18T04:21:14.675Z,95878.41
2023-01-18T04:23:41.212Z,95881.81
2023-01-18T04:26:07.731Z,95888.22
2023-01-18T04:28:34.599Z,95889.53
2023-01-18T04:31:01.339Z,95897.50
2023-01-18T04:33:28.174Z,95895.91
2023-01-18T04:35:55.625Z,95893.34
2023-01-18T04:38:22.444Z,95904.22
2023-01-18T04:40:50.077Z,95907.63
2023-01-18T04:43:16.722Z,95908.66
2023-01-18T04:45:43.174Z,95918.47
2023-01-18T04:48:09.658Z,95927.28
2023-01-18T04:50:38.955Z,95920.66
2023-01-18T04:53:05.448Z,95926.81
2023-01-18T04:55:31.915Z,95929.97
2023-01-18T04:57:58.426Z,95932.91
2023-01-18T05:00:25.294Z,95933.69
2023-01-18T05:02:51.812Z,95936.38
2023-01-18T05:05:18.336Z,95937.94
2023-01-18T05:07:44.810Z,95945.41
2023-01-18T05:10:11.566Z,95951.28
2023-01-18T05:12:38.060Z,95956.28
2023-01-18T05:15:05.930Z,95956.00
2023-01-18T05:17:34.750Z,95960.50
2023-01-18T05:20:02.157Z,95961.81
2023-01-18T05:22:29.215Z,95961.28
2023-01-18T05:24:55.869Z,95973.53
2023-01-18T05:27:22.404Z,95981.22
2023-01-18T05:29:48.892Z,95986.28
2023-01-18T05:32:15.406Z,95987.25
2023-01-18T05:34:42.417Z,95989.31
2023-01-18T05:37:09.058Z,96002.03
2023-01-18T05:39:35.593Z,96011.09
2023-01-18T05:42:02.187Z,96015.88
2023-01-18T05:44:28.975Z,96016.16
2023-01-18T05:46:55.711Z,96021.19
2023-01-18T05:49:22.295Z,96019.63
2023-01-18T05:51:48.764Z,96023.88
2023-01-18T05:54:15.311Z,96022.88
2023-01-18T05:56:42.233Z,96028.97
2023-01-18T05:59:08.977Z,96038.00
2023-01-18T06:01:35.540Z,96043.81
2023-01-18T06:04:02.076Z,96054.19
2023-01-18T06:06:28.635Z,96055.44
2023-01-18T06:08:55.401Z,96052.50
2023-01-18T06:11:21.864Z,96063.13
2023-01-18T06:13:48.344Z,96072.09
2023-01-18T06:16:14.834Z,96078.16
2023-01-18T06:18:41.581Z,96086.41
2023-01-18T06:21:08.204Z,96086.44
2023-01-18T06:23:35.366Z,96093.09
2023-01-18T06:26:02.161Z,96098.75
2023-01-18T06:28:30.517Z,96107.63
2023-01-18T06:30:57.547Z,96113.47
2023-01-18T06:33:24.861Z,96113.09
2023-01-18T06:35:52.307Z,96121.47
2023-01-18T06:38:18.819Z,96127.00
2023-01-18T06:40:45.309Z,96121.53
2023-01-18T06:43:14.292Z,96136.94
2023-01-18T06:45:41.410Z,96135.78
2023-01-18T06:48:08.210Z,96146.38
2023-01-18T06:50:34.834Z,96147.25
2023-01-18T06:53:01.558Z,96155.34
2023-01-18T06:55:28.189Z,96159.56
2023-01-18T06:57:56.167Z,96171.25
2023-01-18T07:00:23.809Z,96162.88
2023-01-18T07:02:52.957Z,96178.59
2023-01-18T07:05:19.715Z,96183.34
2023-01-18T07:07:46.302Z,96189.69
2023-01-18T07:10:15.379Z,96189.13
2023-01-18T07:12:43.266Z,96197.06
2023-01-18T07:15:21.193Z,96198.63
2023-01-18T07:17:50.203Z,96203.44
2023-01-18T07:20:17.025Z,96202.38
2023-01-18T07:22:43.581Z,96210.13
2023-01-18T07:25:13.229Z,96210.97
2023-01-18T07:27:43.117Z,96221.00
2023-01-18T07:30:13.499Z,96232.16
2023-01-18T07:32:47.074Z,96232.97
2023-01-18T07:35:13.531Z,96241.91
2023-01-18T07:37:40.113Z,96242.97
2023-01-18T07:40:08.896Z,96253.75
2023-01-18T07:42:35.405Z,96250.00
2023-01-18T07:45:01.873Z,96257.41
2023-01-18T07:47:28.353Z,96261.53
2023-01-18T07:49:54.967Z,96267.53
2023-01-18T07:52:21.444Z,96265.06
2023-01-18T07:54:47.954Z,96278.09
2023-01-18T07:57:14.482Z,96281.84
2023-01-18T07:59:41.036Z,96295.91
2023-01-18T08:02:09.164Z,96292.19
2023-01-18T08:04:35.816Z,96296.69
2023-01-18T08:07:02.333Z,96301.81
2023-01-18T08:09:28.915Z,96303.94
2023-01-18T08:11:55.494Z,96302.50
2023-01-18T08:14:21.939Z,96317.56
2023-01-18T08:16:48.511Z,96318.38
2023-01-18T08:19:16.600Z,96324.41
2023-01-18T08:21:44.006Z,96321.91
2023-01-18T08:24:10.525Z,96333.00
2023-01-18T08:26:37.003Z,96329.31
2023-01-18T08:29:03.999Z,96339.41
2023-01-18T08:31:30.491Z,96337.19
2023-01-18T08:33:57.030Z,96351.16
2023-01-18T08:36:25.617Z,96355.00
2023-01-18T08:38:59.188Z,96364.00
2023-01-18T08:41:28.404Z,96361.91
2023-01-18T08:43:55.725Z,96372.69
2023-01-18T08:46:22.712Z,96372.69
2023-01-18T08:48:53.460Z,96375.41
2023-01-18T08:51:22.828Z,96376.53
2023-01-18T08:53:54.477Z,96389.69
2023-01-18T08:56:21.066Z,96398.06
2023-01-18T08:58:47.689Z,96400.16
2023-01-18T09:01:14.305Z,96406.97
2023-01-18T09:03:41.982Z,96413.97
2023-01-18T09:06:11.703Z,96422.22
2023-01-18T09:08:39.370Z,96422.97
2023-01-18T09:11:08.522Z,96420.72
2023-01-18T09:13:35.073Z,96427.88
2023-01-18T09:16:03.580Z,96437.81
2023-01-18T09:18:30.255Z,96451.09
2023-01-18T09:21:06.511Z,96451.97
2023-01-18T09:23:32.990Z,96456.69
2023-01-18T09:26:16.950Z,96459.59
2023-01-18T09:28:47.456Z,96458.28
2023-01-18T09:31:14.754Z,96462.78
2023-01-18T09:33:51.200Z,96465.38
2023-01-18T09:36:21.528Z,96467.97
2023-01-18T09:38:48.136Z,96475.97
2023-01-18T09:41:42.763Z,96490.69
2023-01-18T09:44:25.114Z,96493.03
2023-01-18T09:46:57.448Z,96492.56
2023-01-18T09:49:35.936Z,96500.91
2023-01-18T09:52:20.978Z,96503.31
2023-01-18T09:54:56.373Z,96519.22
2023-01-18T09:57:37.954Z,96524.19
2023-01-18T10:00:15.724Z,96525.00
2023-01-18T10:02:44.389Z,96535.00
2023-01-18T10:05:21.503Z,96537.81
2023-01-18T10:08:03.208Z,96540.13
2023-01-18T10:10:37.044Z,96542.53
2023-01-18T10:13:35.328Z,96547.53
2023-01-18T10:16:03.130Z,96557.78
2023-01-18T10:18:30.463Z,96559.81
2023-01-18T10:21:07.537Z,96557.31
2023-01-18T10:23:42.718Z,96567.09
2023-01-18T10:26:28.805Z,96573.53
2023-01-18T10:28:55.269Z,96570.75
2023-01-18T10:31:24.802Z,96577.28
2023-01-18T10:33:55.959Z,96585.22
2023-01-18T10:36:32.716Z,96593.94
2023-01-18T10:39:05.694Z,96586.94
2023-01-18T10:41:37.938Z,96588.69
2023-01-18T10:44:04.688Z,96587.56
2023-01-18T10:46:31.976Z,96592.81
2023-01-18T10:48:59.249Z,96595.06
2023-01-18T10:51:35.120Z,96601.63
2023-01-18T10:54:20.485Z,96596.22
2023-01-18T10:56:46.996Z,96598.09
2023-01-18T10:59:30.999Z,96595.44
2023-01-18T11:01:58.394Z,96609.22
2023-01-18T11:04:28.868Z,96606.06
2023-01-18T11:07:01.430Z,96614.75
2023-01-18T11:09:51.593Z,96617.91
2023-01-18T11:12:34.409Z,96609.94
2023-01-18T11:15:13.207Z,96621.69
2023-01-18T11:18:03.214Z,96615.69
2023-01-18T11:20:39.213Z,96619.34
2023-01-18T11:23:16.111Z,96619.56
2023-01-18T11:25:49.656Z,96621.88
2023-01-18T11:28:22.190Z,96621.47
2023-01-18T11:30:56.796Z,96631.13
2023-01-18T11:33:26.391Z,96633.56
2023-01-18T11:35:55.829Z,96634.16
2023-01-18T11:38:27.498Z,96638.34
2023-01-18T11:41:13.380Z,96640.16
2023-01-18T11:43:45.557Z,96641.25
2023-01-18T11:46:25.441Z,96642.91
2023-01-18T11:48:58.055Z,96648.09
2023-01-18T11:51:45.855Z,96650.19
2023-01-18T11:54:33.508Z,96648.31
2023-01-18T11:57:03.175Z,96654.72
2023-01-18T11:59:33.823Z,96659.84
2023-01-18T12:02:36.993Z,96662.47
2023-01-18T12:05:28.155Z,96671.59
2023-01-18T12:08:25.632Z,96670.00
2023-01-18T12:10:52.081Z,96674.00
2023-01-18T12:13:36.637Z,96669.63
2023-01-18T12:16:11.568Z,96665.81
2023-01-18T12:19:02.319Z,96666.91
2023-01-18T12:22:04.082Z,96675.34
2023-01-18T12:24:44.026Z,96673.66
2023-01-18T12:27:26.508Z,96679.28
2023-01-18T12:30:12.246Z,96681.88
2023-01-18T12:33:12.110Z,96679.78
2023-01-18T12:35:53.436Z,96687.19
2023-01-18T12:38:28.469Z,96686.28
2023-01-18T12:41:13.244Z,96687.56
2023-01-18T12:43:44.751Z,96691.50
2023-01-18T12:46:15.925Z,96704.78
2023-01-18T12:48:51.499Z,96700.25
2023-01-18T12:51:22.712Z,96705.38
2023-01-18T12:53:55.598Z,96703.50
2023-01-18T12:56:28.196Z,96699.78
2023-01-18T12:58:58.078Z,96707.28
2023-01-18T13:01:33.705Z,96708.06
2023-01-18T13:04:13.347Z,96710.50
2023-01-18T13:06:42.580Z,96707.94
2023-01-18T13:09:15.539Z,96717.69
2023-01-18T13:11:44.034Z,96722.59
2023-01-18T13:14:28.072Z,96728.38
2023-01-18T13:17:03.970Z,96731.53
2023-01-18T13:19:39.513Z,96733.34
2023-01-18T13:22:35.705Z,96731.84
2023-01-18T13:25:39.120Z,96732.91
2023-01-18T13:28:16.206Z,96735.31
2023-01-18T13:30:53.220Z,96732.91
2023-01-18T13:33:27.052Z,96733.13
2023-01-18T13:36:04.056Z,96734.59
2023-01-18T13:38:41.666Z,96742.88
2023-01-18T13:41:12.217Z,96749.88
2023-01-18T13:43:40.345Z,96758.66
2023-01-18T13:46:06.852Z,96760.00
2023-01-18T13:48:36.793Z,96764.31
2023-01-18T13:51:03.229Z,96777.50
2023-01-18T13:53:48.430Z,96777.16
2023-01-18T13:56:25.677Z,96785.47
2023-01-18T13:58:58.600Z,96800.34
2023-01-18T14:01:27.391Z,96806.63
2023-01-18T14:03:55.295Z,96807.69
2023-01-18T14:06:32.955Z,96815.22
2023-01-18T14:09:15.023Z,96825.47
2023-01-18T14:11:56.126Z,96830.69
2023-01-18T14:14:26.119Z,96829.47
2023-01-18T14:16:59.849Z,96841.69
2023-01-18T14:19:28.470Z,96843.91
2023-01-18T14:22:12.906Z,96852.38
2023-01-18T14:24:48.616Z,96852.75
2023-01-18T14:27:20.305Z,96866.72
2023-01-18T14:29:52.111Z,96870.28
2023-01-18T14:32:28.319Z,96876.50
2023-01-18T14:35:02.986Z,96873.75
2023-01-18T14:37:32.033Z,96884.63
2023-01-18T14:40:15.648Z,96888.44
2023-01-18T14:43:05.479Z,96885.56
2023-01-18T14:45:38.954Z,96897.31
2023-01-18T14:48:17.351Z,96908.41
2023-01-18T14:50:47.250Z,96906.59
2023-01-18T14:53:22.165Z,96905.13
2023-01-18T14:56:05.994Z,96916.75
2023-01-18T14:58:35.583Z,96919.63
2023-01-18T15:01:02.213Z,96921.72
2023-01-18T15:03:30.669Z,96923.31
2023-01-18T15:06:19.166Z,96926.09
2023-01-18T15:08:47.026Z,96930.50
2023-01-18T15:11:14.185Z,96930.03
2023-01-18T15:13:49.164Z,96926.81
2023-01-18T15:16:27.890Z,96936.25
2023-01-18T15:18:56.105Z,96949.31
2023-01-18T15:21:26.704Z,96948.97
2023-01-18T15:24:01.620Z,96950.59
2023-01-18T15:26:43.873Z,96949.06
2023-01-18T15:29:19.143Z,96961.31
2023-01-18T15:31:51.613Z,96956.69
2023-01-18T15:34:26.905Z,96962.34
2023-01-18T15:36:55.673Z,96967.75
2023-01-18T15:39:22.246Z,96959.47
2023-01-18T15:41:51.178Z,96970.75
2023-01-18T15:44:23.649Z,96967.66
2023-01-18T15:46:50.541Z,96973.75
2023-01-18T15:49:17.219Z,96976.31
2023-01-18T15:51:57.129Z,96986.59
2023-01-18T15:54:27.971Z,96984.94
2023-01-18T15:57:11.021Z,96991.06
2023-01-18T15:59:40.768Z,96997.75
2023-01-18T16:02:21.646Z,96994.09
2023-01-18T16:04:48.291Z,97000.41
2023-01-18T16:07:30.131Z,96999.41
2023-01-18T16:10:15.473Z,97016.00
2023-01-18T16:12:43.104Z,97014.16
2023-01-18T16:15:30.755Z,97020.13
2023-01-18T16:18:06.514Z,97019.38
2023-01-18T16:20:35.221Z,97023.25
2023-01-18T16:23:09.043Z,97025.63
2023-01-18T16:25:36.960Z,97028.94
2023-01-18T16:28:04.980Z,97026.63
2023-01-18T16:30:38.495Z,97038.63
2023-01-18T16:33:16.605Z,97043.47
2023-01-18T16:35:43.620Z,97056.16
2023-01-18T16:38:16.634Z,97048.53
2023-01-18T16:40:45.787Z,97055.78
2023-01-18T16:43:24.178Z,97058.69
2023-01-18T16:45:52.701Z,97060.41
2023-01-18T16:48:24.795Z,97068.56
2023-01-18T16:50:51.829Z,97073.41
2023-01-18T16:53:18.797Z,97080.66
2023-01-18T16:55:48.192Z,97087.91
2023-01-18T16:58:16.451Z,97094.50
2023-01-18T17:00:49.531Z,97096.22
2023-01-18T17:03:15.982Z,97094.81
2023-01-18T17:05:42.641Z,97099.06
2023-01-18T17:08:14.017Z,97106.19
2023-01-18T17:10:43.973Z,97115.44
2023-01-18T17:13:10.620Z,97125.03
2023-01-18T17:15:41.602Z,97109.13
2023-01-18T17:18:13.883Z,97121.38
2023-01-18T17:20:40.374Z,97129.31
2023-01-18T17:23:07.178Z,97129.63
2023-01-18T17:25:33.937Z,97138.16
2023-01-18T17:28:01.037Z,97150.53
2023-01-18T17:30:27.798Z,97154.06
2023-01-18T17:32:54.796Z,97156.56
2023-01-18T17:35:23.110Z,97164.53
2023-01-18T17:37:54.570Z,97172.91
2023-01-18T17:40:38.648Z,97175.56
2023-01-18T17:43:06.828Z,97185.72
2023-01-18T17:45:33.286Z,97190.66
2023-01-18T17:47:59.770Z,97191.91
2023-01-18T17:50:27.265Z,97193.09
2023-01-18T17:52:54.609Z,97206.56
2023-01-18T17:55:27.248Z,97211.19
2023-01-18T17:57:55.532Z,97215.22
2023-01-18T18:00:22.350Z,97217.28
2023-01-18T18:02:51.818Z,97220.28
2023-01-18T18:05:18.505Z,97217.59
2023-01-18T18:07:45.096Z,97220.16
2023-01-18T18:10:11.807Z,97227.59
2023-01-18T18:12:38.394Z,97232.81
2023-01-18T18:15:05.714Z,97243.50
2023-01-18T18:17:32.555Z,97249.88
2023-01-18T18:19:59.259Z,97250.75
2023-01-18T18:22:26.033Z,97251.34
2023-01-18T18:24:52.812Z,97261.19
2023-01-18T18:27:19.890Z,97269.47
2023-01-18T18:29:46.516Z,97281.22
2023-01-18T18:32:14.091Z,97281.97
2023-01-18T18:34:40.696Z,97280.91
2023-01-18T18:37:07.250Z,97278.81
2023-01-18T18:39:33.835Z,97288.81
2023-01-18T18:42:00.503Z,97280.50
2023-01-18T18:44:27.510Z,97298.97
2023-01-18T18:46:54.012Z,97310.06
2023-01-18T18:49:20.466Z,97311.28
2023-01-18T18:51:46.929Z,97314.81
2023-01-18T18:54:13.542Z,97321.16
2023-01-18T18:56:40.115Z,97324.84
2023-01-18T18:59:06.649Z,97332.59
2023-01-18T19:01:33.270Z,97336.41
2023-01-18T19:04:00.330Z,97345.16
2023-01-18T19:06:27.732Z,97341.84
2023-01-18T19:08:55.044Z,97349.59
2023-01-18T19:11:21.816Z,97352.06
2023-01-18T19:13:49.533Z,97353.69
2023-01-18T19:16:16.777Z,97353.25
2023-01-18T19:18:43.667Z,97370.38
2023-01-18T19:21:10.268Z,97363.66
2023-01-18T19:23:36.816Z,97379.94
2023-01-18T19:26:03.947Z,97380.53
2023-01-18T19:28:30.522Z,97385.47
2023-01-18T19:31:06.863Z,97385.06
2023-01-18T19:33:33.554Z,97385.22
2023-01-18T19:36:08.249Z,97392.88
2023-01-18T19:38:38.795Z,97393.19
2023-01-18T19:41:10.434Z,97386.28
2023-01-18T19:43:38.573Z,97394.66
2023-01-18T19:46:10.869Z,97401.44
2023-01-18T19:48:39.209Z,97396.19
2023-01-18T19:51:21.370Z,97398.22
2023-01-18T19:53:48.969Z,97404.91
2023-01-18T19:56:15.493Z,97394.28
2023-01-18T19:58:42.058Z,97404.25
2023-01-18T20:01:22.995Z,97406.41
2023-01-18T20:03:53.215Z,97419.19
2023-01-18T20:06:19.920Z,97411.81
2023-01-18T20:08:47.029Z,97415.16
2023-01-18T20:11:15.120Z,97406.06
2023-01-18T20:13:45.405Z,97418.09
2023-01-18T20:16:11.869Z,97427.50
2023-01-18T20:18:38.429Z,97417.34
2023-01-18T20:21:14.111Z,97424.22
2023-01-18T20:23:42.249Z,97435.00
2023-01-18T20:26:09.644Z,97432.13
2023-01-18T20:28:36.899Z,97427.50
2023-01-18T20:31:05.937Z,97440.91
2023-01-18T20:33:33.516Z,97444.56
2023-01-18T20:36:01.712Z,97457.22
2023-01-18T20:38:28.677Z,97459.84
2023-01-18T20:40:55.357Z,97459.25
2023-01-18T20:43:21.825Z,97461.88
2023-01-18T20:45:48.298Z,97472.66
2023-01-18T20:48:14.902Z,97474.28
2023-01-18T20:50:41.392Z,97480.63
2023-01-18T20:53:07.907Z,97477.97
2023-01-18T20:55:36.292Z,97475.47
2023-01-18T20:58:02.940Z,97479.59
2023-01-18T21:00:29.655Z,97484.25
2023-01-18T21:02:56.167Z,97490.59
2023-01-18T21:05:23.051Z,97493.00
2023-01-18T21:07:49.544Z,97490.78
2023-01-18T21:10:16.381Z,97493.00
2023-01-18T21:12:42.824Z,97495.25
2023-01-18T21:15:09.813Z,97494.91
2023-01-18T21:17:36.543Z,97491.44
2023-01-18T21:20:03.754Z,97490.19
2023-01-18T21:22:30.263Z,97493.69
2023-01-18T21:24:58.015Z,97502.00
2023-01-18T21:27:28.173Z,97504.88
2023-01-18T21:29:54.774Z,97505.28
2023-01-18T21:32:22.835Z,97504.88
2023-01-18T21:34:49.359Z,97508.13
2023-01-18T21:37:15.825Z,97518.72
2023-01-18T21:39:42.425Z,97519.09
2023-01-18T21:42:29.556Z,97526.44
2023-01-18T21:45:14.497Z,97523.78
2023-01-18T21:47:40.968Z,97526.63
2023-01-18T21:50:26.931Z,97526.44
2023-01-18T21:53:11.998Z,97523.59
2023-01-18T21:55:40.075Z,97528.47
2023-01-18T21:58:25.152Z,97537.03
2023-01-18T22:00:51.845Z,97541.91
2023-01-18T22:03:18.601Z,97543.53
2023-01-18T22:05:45.151Z,97543.97
2023-01-18T22:08:11.750Z,97554.53
2023-01-18T22:10:38.286Z,97556.97
2023-01-18T22:13:04.783Z,97560.41
2023-01-18T22:15:31.271Z,97566.31
2023-01-18T22:17:58.457Z,97567.56
2023-01-18T22:20:25.301Z,97571.81
2023-01-18T22:22:51.967Z,97569.19
2023-01-18T22:25:18.457Z,97571.63
2023-01-18T22:27:44.973Z,97572.03
2023-01-18T22:30:12.063Z,97567.13
2023-01-18T22:32:38.550Z,97572.84
2023-01-18T22:35:05.355Z,97567.16
2023-01-18T22:37:31.976Z,97574.47
2023-01-18T22:39:58.565Z,97571.44
2023-01-18T22:42:25.270Z,97575.31
2023-01-18T22:44:51.749Z,97578.56
2023-01-18T22:47:18.397Z,97581.81
2023-01-18T22:49:44.920Z,97586.69
2023-01-18T22:52:11.365Z,97582.22
2023-01-18T22:54:37.890Z,97578.19
2023-01-18T22:57:04.566Z,97572.47
2023-01-18T22:59:31.089Z,97578.34
2023-01-18T23:01:58.161Z,97583.03
2023-01-18T23:04:24.787Z,97582.41
2023-01-18T23:06:54.602Z,97595.25
2023-01-18T23:09:21.381Z,97594.22
2023-01-18T23:11:47.990Z,97584.25
2023-01-18T23:14:33.134Z,97584.66
2023-01-18T23:17:18.416Z,97597.50
2023-01-18T23:19:44.849Z,97590.38
2023-01-18T23:22:11.421Z,97594.63
2023-01-18T23:24:38.923Z,97598.50
2023-01-18T23:27:07.942Z,97597.84
2023-01-18T23:29:34.462Z,97606.19
2023-01-18T23:32:01.362Z,97603.31
2023-01-18T23:34:28.256Z,97604.91
2023-01-18T23:36:55.183Z,97610.41
2023-01-18T23:39:40.372Z,97617.47
2023-01-18T23:42:25.446Z,97614.03
2023-01-18T23:45:10.311Z,97618.50
2023-01-18T23:47:55.852Z,97617.00
2023-01-18T23:50:40.867Z,97614.97
2023-01-18T23:53:30.952Z,97626.59
2023-01-18T23:55:57.817Z,97624.78
2023-01-18T23:58:24.496Z,97628.84
